Date,TemperatureHighF,TemperatureAvgF,TemperatureLowF,DewpointHighF,DewpointAvgF,DewpointLowF,HumidityHigh,HumidityAvg,HumidityLow,PressureMaxIn,PressureMinIn,WindSpeedMaxMPH,WindSpeedAvgMPH,GustSpeedMaxMPH,PrecipitationSumIn
2013-1-1,18,10,4,4,2,0,80,69,51,30.19,30.11,10,4,14,0.00
2013-1-2,29,20,7,20,12,1,82,71,50,30.13,30.03,9,3,16,0.00
2013-1-3,24,23,22,20,19,17,85,82,80,30.05,30.01,8,5,13,0.00
2013-1-4,32,22,11,19,14,6,83,72,57,30.16,30.03,11,6,18,0.00
2013-1-5,36,28,15,33,24,12,96,85,71,30.19,29.85,11,5,18,0.02
2013-1-6,35,27,18,32,22,15,89,81,65,30.27,29.84,14,6,18,0.00
2013-1-7,39,28,15,27,20,13,91,75,55,30.26,30.01,16,6,27,0.00
2013-1-8,42,33,21,30,27,20,93,79,62,30.10,29.93,10,3,17,0.00
2013-1-9,42,36,27,31,26,22,82,68,49,30.43,29.91,20,7,30,0.02
2013-1-10,43,32,20,36,27,18,97,84,66,30.47,29.88,4,1,13,0.32
2013-1-11,51,43,37,46,41,36,99,94,83,29.88,29.61,15,4,27,0.14
2013-1-12,52,39,26,46,32,20,87,75,66,29.98,29.62,17,9,32,0.00
2013-1-13,26,20,13,23,14,5,88,76,67,30.17,29.86,14,6,22,0.00
2013-1-14,27,17,10,10,7,4,79,65,44,30.40,30.17,9,4,16,0.00
2013-1-15,32,21,12,16,12,9,88,71,43,30.38,30.06,8,2,14,0.00
2013-1-16,33,26,16,28,19,9,83,73,54,30.06,29.73,20,7,36,0.01
2013-1-17,30,21,14,20,8,2,80,57,39,30.36,30.01,14,4,24,0.00
2013-1-18,43,30,12,31,21,8,85,72,60,30.38,29.81,24,9,37,0.00
2013-1-19,44,38,19,34,28,6,80,67,33,29.87,29.63,24,10,45,0.00
2013-1-20,19,11,7,10,-1,-3,69,57,44,30.25,29.87,21,8,38,0.00
2013-1-21,10,4,-3,5,-6,-13,82,63,48,30.23,30.07,17,7,28,0.00
2013-1-22,8,0,-7,-5,-10,-16,72,60,50,30.31,30.22,13,6,20,0.00
2013-1-23,17,10,3,12,2,-7,85,69,59,30.33,30.04,17,6,30,0.00
2013-1-24,24,12,0,9,0,-7,70,60,41,30.60,30.33,12,4,23,0.00
2013-1-25,24,19,16,18,12,5,90,74,56,30.32,29.92,12,5,18,0.00
2013-1-26,39,19,8,14,8,3,79,64,30,30.34,30.14,10,3,16,0.00
2013-1-27,33,28,22,32,23,14,98,84,68,30.32,29.87,15,6,21,0.00
2013-1-28,48,37,31,36,32,28,99,82,64,29.94,29.76,8,2,14,0.12
2013-1-29,58,44,36,53,40,31,94,85,74,29.81,29.42,14,2,20,1.06
2013-1-30,38,29,16,34,24,11,86,82,77,29.57,29.24,8,1,15,0.15
2013-1-31,16,11,2,11,4,-4,84,71,57,30.09,29.57,15,6,26,0.00
2013-2-1,7,3,-3,4,-5,-9,85,69,54,30.26,30.08,14,7,24,0.00
2013-2-2,18,10,3,7,3,-4,88,73,52,30.11,29.99,9,3,14,0.00
2013-2-3,21,15,5,11,7,-1,84,71,53,30.01,29.91,14,5,26,0.00
2013-2-4,24,15,5,14,9,0,88,77,63,29.99,29.89,8,2,14,0.00
2013-2-5,27,17,-1,22,12,-5,89,80,69,30.05,29.75,11,4,21,0.00
2013-2-6,36,22,0,29,16,-3,87,76,52,30.20,30.06,10,2,14,0.00
2013-2-7,35,32,23,33,30,22,96,91,85,30.08,29.87,6,1,10,0.04
2013-2-8,26,21,9,22,18,7,94,87,79,30.37,29.98,0,0,0,0.00
2013-2-9,30,17,1,25,14,-2,94,87,77,30.36,30.06,0,0,0,0.00
2013-2-10,44,32,14,36,29,12,97,88,61,30.07,29.42,16,4,27,0.60
2013-2-11,42,32,27,32,25,20,84,76,61,29.95,29.42,24,12,40,0.05
2013-2-12,31,24,18,20,18,15,92,77,61,30.06,29.85,11,5,19,0.00
2013-2-13,43,29,14,29,23,12,93,80,55,29.86,29.68,8,2,16,0.00
2013-2-14,36,33,29,33,28,21,92,81,69,29.94,29.57,15,5,25,0.01
2013-2-15,29,22,14,25,11,4,89,63,41,30.15,29.94,12,6,23,0.00
2013-2-16,20,12,6,4,1,-2,77,61,40,30.15,30.09,13,5,24,0.00
2013-2-17,29,17,3,15,5,-3,80,59,32,30.18,29.96,9,3,13,0.00
2013-2-18,48,35,25,42,28,15,96,75,60,29.95,29.40,15,6,28,0.37
2013-2-19,32,15,8,29,8,-1,91,75,63,30.11,29.47,19,6,35,0.00
2013-2-20,16,10,6,5,1,-2,72,66,61,30.28,30.12,11,8,21,0.00
2013-2-21,26,23,14,23,19,8,88,82,72,30.38,30.04,10,5,19,0.01
2013-2-22,33,28,24,31,26,21,96,93,83,30.04,29.76,8,4,16,0.02
2013-2-23,31,25,20,24,19,15,88,78,64,29.90,29.81,12,6,18,0.00
2013-2-24,42,27,16,25,18,14,90,72,45,30.12,29.90,7,2,14,0.00
2013-2-25,50,28,13,27,21,10,91,75,39,30.15,30.01,6,1,10,0.00
2013-2-26,36,33,29,32,29,25,99,86,66,30.01,29.57,10,4,24,0.00
2013-2-27,35,32,29,31,29,24,98,88,74,29.72,29.54,10,6,17,0.20
2013-2-28,36,31,25,30,26,19,92,81,68,30.08,29.71,11,7,21,0.04
2013-3-1,25,24,22,20,19,16,83,79,73,30.19,30.06,11,7,21,0.00
2013-3-2,32,21,6,17,12,3,87,70,50,30.18,30.13,11,4,15,0.00
2013-3-3,38,18,2,22,5,-1,89,63,23,30.13,30.05,8,1,13,0.00
2013-3-4,40,23,4,24,16,0,87,73,46,30.11,30.02,6,2,11,0.00
2013-3-5,32,30,26,29,26,23,96,86,74,30.02,29.85,11,4,24,0.00
2013-3-6,35,30,26,27,24,22,87,80,70,30.27,30.00,13,7,22,0.04
2013-3-7,50,30,15,26,20,13,92,68,35,30.40,30.26,8,2,12,0.00
2013-3-8,50,26,9,31,21,7,92,80,46,30.44,30.27,9,2,15,0.00
2013-3-9,39,33,23,33,29,20,91,83,75,30.28,29.81,11,3,17,0.05
2013-3-10,47,38,34,41,35,32,99,88,77,29.81,29.60,9,1,13,0.65
2013-3-11,39,35,31,34,28,24,86,78,65,29.72,29.50,9,2,15,0.05
2013-3-12,35,29,25,28,23,19,92,78,53,29.95,29.72,13,3,25,0.01
2013-3-13,34,26,18,21,11,6,87,57,32,30.26,29.96,14,7,24,0.00
2013-3-14,24,20,17,11,10,9,74,66,57,30.27,30.26,3,1,4,0.00
2013-3-15,44,33,28,34,28,26,93,84,65,30.03,29.78,4,1,7,0.05
2013-3-16,40,29,25,28,22,17,93,77,48,30.09,29.77,8,2,14,0.00
2013-3-17,37,27,19,23,17,10,79,64,44,30.22,30.00,10,4,14,0.01
2013-3-18,41,29,18,34,25,11,91,83,69,30.00,29.56,16,4,29,0.12
2013-3-19,32,21,13,12,9,6,76,62,41,29.99,29.69,19,10,35,0.04
2013-3-20,21,16,10,8,3,-1,62,56,47,30.03,29.98,13,8,25,0.00
2013-3-21,14,12,11,2,2,2,65,63,60,30.00,29.99,11,7,17,0.00
2013-3-22,45,26,15,16,12,7,79,56,25,30.06,29.98,7,2,10,0.00
2013-3-23,54,33,16,25,21,13,89,65,26,30.11,30.02,6,1,12,0.00
2013-3-24,41,32,30,29,25,21,84,75,59,30.03,29.72,11,4,21,0.00
2013-3-25,36,32,28,28,24,22,85,75,62,30.06,29.74,14,7,25,0.00
2013-3-26,42,35,30,28,25,23,78,68,55,30.21,30.05,11,5,19,0.00
2013-3-27,35,34,34,24,24,24,66,66,65,30.21,30.21,7,5,11,0.00
2013-5-16,57,57,57,38,36,33,49,45,40,29.99,29.98,2,0,5,12.71
2013-5-17,68,57,48,50,45,35,94,66,44,30.10,29.98,5,2,14,0.01
2013-5-18,82,65,52,62,53,45,84,67,47,30.07,29.96,4,1,9,0.00
2013-5-19,88,70,57,67,61,54,93,74,50,29.96,29.73,15,3,23,0.00
2013-5-20,87,76,68,67,62,57,90,64,38,29.76,29.67,20,4,27,0.01
2013-5-21,81,71,64,65,61,57,95,74,44,29.71,29.62,19,4,33,0.08
2013-5-22,68,61,53,65,58,53,98,91,79,29.76,29.62,5,1,11,1.04
2013-5-23,61,51,42,53,45,35,98,81,48,30.29,29.76,9,3,22,0.05
2013-5-24,66,50,38,43,36,31,87,60,37,30.42,30.30,4,1,10,0.00
2013-5-25,67,53,43,43,36,28,81,55,25,30.38,30.28,4,1,9,0.00
2013-5-26,67,55,41,46,41,35,89,62,41,30.29,30.16,10,2,18,0.00
2013-5-27,55,52,50,52,49,40,98,88,62,30.16,29.89,8,3,14,0.05
2013-5-28,74,62,51,68,59,50,99,93,76,29.89,29.68,7,1,15,0.73
2013-5-29,87,72,63,68,64,60,98,80,50,29.92,29.76,8,2,15,0.01
2013-5-30,86,73,64,70,66,63,99,81,56,29.89,29.75,12,2,26,0.20
2013-5-31,82,70,63,68,64,62,99,84,54,29.84,29.70,12,2,30,0.20
2013-6-1,79,71,64,68,64,60,96,80,58,29.70,29.61,12,2,21,0.04
2013-6-2,65,57,47,59,49,44,90,77,59,30.01,29.66,11,3,17,0.00
2013-6-3,78,59,45,57,45,41,99,66,28,30.07,29.99,8,2,14,0.00
2013-6-4,75,61,54,49,45,41,72,56,36,30.16,30.07,5,1,11,0.00
2013-6-5,67,59,53,53,49,45,82,71,54,30.12,29.98,4,1,12,0.00
2013-6-6,64,57,54,53,50,46,87,78,67,29.96,29.89,3,1,8,0.00
2013-6-7,79,60,52,50,46,38,82,63,24,29.96,29.89,4,1,9,0.00
2013-6-8,82,62,49,52,48,44,88,62,32,30.01,29.90,4,1,8,0.00
2013-6-9,79,67,54,63,56,49,86,69,52,30.01,29.81,12,2,21,0.00
2013-6-10,88,71,62,68,63,60,96,79,48,29.84,29.75,2,0,6,0.00
2013-6-11,89,74,62,67,63,60,98,72,43,29.89,29.77,9,1,14,0.00
2013-6-12,82,70,62,66,64,60,99,82,58,29.89,29.62,8,1,30,0.00
2013-6-13,81,67,57,61,55,51,89,67,49,30.05,29.67,5,2,16,0.00
2013-6-14,88,66,54,58,52,47,90,63,34,30.12,30.00,4,1,8,0.20
2013-6-15,81,67,57,70,61,50,96,81,65,30.06,29.79,8,1,17,0.00
2013-6-16,89,76,66,69,61,52,97,66,30,29.88,29.81,9,3,19,0.58
2013-6-17,91,71,59,62,58,52,92,66,31,29.95,29.81,8,2,18,0.00
2013-6-18,77,64,54,56,51,41,89,65,39,30.06,29.93,4,2,14,0.00
2013-6-19,81,66,51,53,48,42,80,55,32,30.13,30.06,6,2,8,0.00
2013-6-20,89,72,56,65,56,42,77,57,35,30.13,30.03,8,2,13,0.00
2013-6-21,78,72,65,69,66,58,98,82,67,30.10,29.88,17,1,24,0.00
2013-6-22,86,73,67,74,69,66,98,87,67,30.10,29.92,10,2,23,0.01
2013-6-23,93,78,67,75,69,66,97,77,53,29.99,29.85,12,2,20,0.00
2013-6-24,89,75,69,74,69,66,97,81,58,30.00,29.81,8,2,21,0.00
2013-6-25,91,73,66,74,69,63,99,87,57,29.92,29.79,8,1,18,0.17
2013-6-26,93,74,68,73,69,67,98,85,52,29.80,29.68,7,1,15,0.00
2013-6-27,89,76,67,73,69,65,99,81,51,29.75,29.65,7,2,17,0.01
2013-6-28,81,72,65,66,64,61,95,77,54,29.69,29.57,10,3,18,0.08
2013-6-29,78,68,64,64,60,56,97,78,47,29.79,29.58,6,3,17,0.84
2013-6-30,81,70,61,60,51,41,76,54,26,29.99,29.79,6,2,18,0.00
2013-7-1,86,74,59,54,50,45,77,46,27,30.07,29.99,4,2,12,0.00
2013-7-2,78,65,58,56,52,46,89,65,38,30.09,30.04,4,1,12,0.06
2013-7-3,70,65,61,64,60,55,97,85,76,30.04,29.99,2,1,8,0.09
2013-7-4,88,71,61,70,64,60,99,81,46,30.07,29.99,4,1,9,0.00
2013-7-5,91,77,64,67,64,60,95,68,38,30.05,29.97,9,2,15,0.00
2013-7-6,94,75,64,72,66,62,96,76,44,30.03,29.93,8,1,11,0.00
2013-7-7,90,79,70,73,71,67,95,77,55,29.96,29.90,5,1,14,0.00
2013-7-8,91,78,72,76,72,70,95,83,60,29.96,29.89,12,2,21,0.21
2013-7-9,89,76,69,78,72,68,97,87,68,29.97,29.80,5,2,15,0.28
2013-7-10,82,76,65,76,65,56,95,70,43,29.98,29.80,8,3,17,0.00
2013-7-11,89,72,59,62,57,50,92,64,28,30.08,29.98,4,1,8,0.00
2013-7-12,95,71,54,64,57,52,93,66,29,30.14,30.05,6,1,10,0.00
2013-7-13,91,75,59,68,62,58,98,67,35,30.14,30.07,6,2,11,0.00
2013-7-14,95,80,66,71,68,63,93,69,43,30.20,30.12,6,2,10,0.00
2013-7-15,94,80,70,77,73,68,96,79,57,30.25,30.19,6,1,11,0.00
2013-7-16,97,84,75,78,76,73,97,78,54,30.26,30.19,10,2,14,0.00
2013-7-17,96,86,78,77,75,71,90,72,52,30.26,30.12,8,2,14,0.00
2013-7-18,95,86,77,78,74,72,90,70,50,30.14,29.88,11,3,18,0.00
2013-7-19,81,80,80,75,74,74,82,82,81,29.89,29.85,4,2,12,0.00
2013-7-20,89,75,66,68,64,59,82,68,41,29.94,29.78,4,1,8,0.00
2013-7-21,85,71,65,69,63,57,99,78,57,29.95,29.85,5,1,8,0.80
2013-7-22,90,77,65,73,69,62,99,79,52,29.86,29.67,8,1,12,0.01
2013-7-23,80,71,61,66,60,55,91,70,43,29.96,29.68,7,2,12,0.08
2013-7-24,81,66,56,58,55,53,93,69,42,30.04,29.96,6,1,10,0.00
2013-7-25,88,69,55,66,59,53,93,72,41,30.06,29.95,4,1,13,0.00
2013-7-26,77,68,63,72,64,61,97,88,73,29.95,29.83,5,1,12,0.27
2013-7-27,65,59,54,60,51,48,94,76,60,29.89,29.83,6,3,14,0.00
2013-7-28,71,61,53,55,52,50,94,74,54,29.95,29.80,7,3,19,0.00
2013-7-29,86,66,56,62,57,53,92,74,40,30.15,29.96,4,1,8,0.00
2013-7-30,82,67,56,65,62,55,99,85,55,30.16,30.06,4,1,9,0.11
2013-7-31,86,68,62,71,65,60,99,91,58,30.06,29.91,5,0,11,0.32
2013-8-1,82,70,62,63,59,55,97,74,40,29.95,29.89,6,2,14,0.01
2013-8-2,85,71,62,68,62,56,99,76,50,29.92,29.82,6,1,13,0.52
2013-8-3,85,70,60,60,56,52,91,64,37,30.08,29.92,8,1,17,0.00
2013-8-4,78,67,59,61,58,55,98,75,50,30.19,30.08,3,1,9,0.00
2013-8-5,78,66,58,64,61,57,96,84,61,30.10,29.85,6,0,14,0.02
2013-8-6,90,74,63,73,68,63,99,83,55,29.85,29.77,8,1,14,0.01
2013-8-7,89,76,67,75,69,62,99,79,46,29.93,29.73,9,1,13,0.00
2013-8-8,90,71,62,64,56,46,99,67,25,30.03,29.94,4,1,8,0.00
2013-8-9,83,70,58,67,60,55,90,73,55,30.01,29.94,6,1,17,0.00
2013-8-10,84,70,58,66,59,56,98,73,40,30.11,30.02,3,0,7,0.00
2013-8-11,78,66,57,67,62,56,99,86,69,30.10,29.99,3,0,9,0.02
2013-8-12,95,74,66,72,67,62,99,81,42,30.00,29.85,3,0,8,1.00
2013-8-13,66,63,61,49,48,48,65,60,52,30.08,30.06,4,2,8,0.00
2013-8-15,85,71,59,59,56,51,86,60,35,30.11,30.05,4,1,11,0.00
2013-8-16,88,71,59,61,58,54,92,66,33,30.16,30.08,4,1,8,0.00
2013-8-17,90,70,56,74,60,56,99,75,34,30.22,30.14,4,0,10,0.00
2013-8-18,89,70,56,73,60,55,99,74,39,30.19,30.07,3,0,10,0.00
2013-8-19,63,62,61,60,59,59,94,92,88,30.08,30.06,0,0,2,0.00
2013-8-23,88,76,61,64,61,59,96,63,40,30.16,30.11,3,1,8,0.00
2013-8-24,93,71,57,70,63,57,99,78,44,30.23,30.14,7,1,12,0.00
2013-8-25,91,78,67,72,67,59,90,70,45,30.19,30.06,12,3,57,0.00
2013-8-26,91,80,73,76,71,66,89,74,61,30.09,29.94,7,3,16,0.00
2013-8-27,95,84,76,77,74,72,88,73,52,29.94,29.77,12,2,21,0.00
2013-8-28,94,79,70,75,71,68,96,79,49,30.02,29.80,3,1,8,0.00
2013-8-29,98,79,66,74,70,66,99,76,44,30.06,29.95,3,0,8,0.00
2013-8-30,94,76,69,77,70,64,97,84,55,29.96,29.74,10,2,22,0.15
2013-8-31,84,72,65,70,66,64,96,83,62,29.85,29.77,2,1,6,0.00
2013-9-1,87,74,62,73,68,62,99,84,61,29.80,29.68,8,2,17,0.24
2013-9-2,78,68,59,64,58,54,85,71,51,29.96,29.91,5,2,11,0.00
2013-9-3,81,64,53,59,55,51,94,75,42,30.06,29.96,6,1,11,0.00
2013-9-4,88,68,56,66,61,56,99,80,45,30.10,29.99,6,1,11,0.00
2013-9-5,82,68,57,64,55,48,91,66,31,30.25,30.10,2,1,9,0.00
2013-9-6,93,78,60,70,66,56,97,68,46,30.17,29.96,4,0,11,0.00
2013-9-7,90,73,66,74,68,65,98,86,59,29.96,29.86,9,1,14,0.32
2013-9-8,78,69,66,69,66,64,94,88,68,30.04,29.93,5,2,14,0.00
2013-9-9,93,78,68,79,72,66,98,82,61,29.96,29.76,4,1,11,0.00
2013-9-10,96,82,76,73,68,64,72,63,37,29.93,29.79,10,4,21,0.00
2013-9-11,86,77,70,69,68,66,90,74,55,30.02,29.95,5,2,14,0.00
2013-9-12,81,70,61,68,62,57,99,77,52,30.03,29.93,6,1,14,0.08
2013-9-13,76,58,49,50,46,41,86,66,29,30.17,30.11,5,2,11,0.00
2013-9-14,79,59,45,55,48,44,99,72,39,30.14,29.98,7,1,14,0.00
2013-9-15,62,57,54,59,54,48,99,89,66,30.17,29.97,4,1,11,0.34
2013-9-16,70,55,45,52,47,42,97,75,45,30.34,30.18,4,2,11,0.00
2013-9-17,70,59,46,58,53,45,99,82,60,30.30,30.08,6,1,16,0.00
2013-9-18,86,69,59,69,63,56,95,82,57,30.08,29.88,4,0,17,0.09
2013-9-19,84,73,68,74,69,66,99,89,70,29.89,29.72,10,1,21,0.44
2013-9-20,69,68,68,68,68,67,99,98,97,29.76,29.69,4,2,11,0.01
2013-9-21,59,56,49,56,49,46,95,78,64,29.91,29.77,7,3,15,0.00
2013-9-22,75,54,44,51,46,42,97,75,43,30.04,29.91,4,1,7,0.00
2013-9-23,72,55,45,53,50,44,99,83,49,30.09,30.01,4,1,8,0.00
2013-9-24,74,59,50,58,53,50,99,83,50,30.03,29.93,3,1,7,0.00
2013-9-25,77,59,50,60,53,50,99,83,46,29.96,29.92,3,1,8,0.01
2013-9-26,81,61,52,62,54,49,99,81,34,30.06,29.95,3,1,7,0.04
2013-9-27,82,64,51,62,55,51,99,77,45,30.13,30.03,5,1,11,0.00
2013-9-28,86,68,55,68,60,54,99,78,44,30.04,29.82,8,1,21,0.07
2013-9-29,86,60,50,56,51,43,99,76,27,30.03,29.91,4,1,11,0.04
2013-9-30,84,60,46,61,51,45,99,76,35,29.97,29.81,4,0,11,0.00
2013-10-1,83,67,55,65,60,52,99,79,53,29.91,29.80,16,3,27,0.01
2013-10-2,87,66,51,65,51,41,99,68,22,30.08,29.92,2,0,6,0.00
2013-10-3,78,67,58,70,64,56,99,91,69,29.97,29.81,8,0,13,0.52
2013-10-4,69,65,62,68,64,61,99,98,94,29.98,29.85,4,1,10,0.07
2013-10-5,77,66,62,73,66,62,99,98,87,29.93,29.69,11,0,20,0.40
2013-10-6,65,55,47,65,49,42,99,80,52,29.73,29.64,9,3,18,0.14
2013-10-7,69,54,47,51,47,45,99,81,44,30.04,29.67,8,3,16,0.00
2013-10-8,81,59,44,60,50,43,99,77,33,30.12,30.04,6,0,14,0.01
2013-10-9,75,59,50,56,51,47,99,77,42,30.20,30.10,4,1,10,0.00
2013-10-10,76,59,47,63,52,46,99,82,46,30.13,30.02,3,0,7,0.00
2013-10-11,74,62,52,62,56,52,99,80,55,30.04,29.93,9,2,15,0.01
2013-10-12,70,61,52,64,55,43,99,81,52,30.11,29.90,6,1,15,0.21
2013-10-13,66,51,42,45,42,38,98,75,38,30.36,30.11,8,2,14,0.00
2013-10-14,65,50,39,51,44,39,99,82,53,30.37,30.10,4,1,10,0.00
2013-10-15,61,56,50,61,53,45,99,90,79,30.10,29.70,12,2,18,0.14
2013-10-16,55,51,48,51,48,44,99,92,84,29.88,29.74,8,4,18,0.00
2013-10-17,52,48,45,48,46,42,99,93,76,29.87,29.76,7,2,13,0.14
2013-10-18,50,45,40,45,41,38,99,86,74,29.88,29.76,10,3,18,0.00
2013-10-19,55,45,40,41,38,35,94,77,50,29.86,29.69,11,3,27,0.00
2013-10-20,53,46,36,49,42,36,99,86,52,29.81,29.67,6,1,12,0.02
2013-10-21,50,42,34,46,34,25,89,72,58,29.88,29.69,12,4,22,0.01
2013-10-22,48,37,30,32,29,25,85,72,49,29.91,29.84,6,2,11,0.00
2013-10-23,43,37,31,31,28,22,90,70,44,29.95,29.86,11,3,17,0.00
2013-10-24,43,37,32,30,28,26,84,69,56,30.21,29.94,11,4,18,0.00
2013-10-25,53,41,30,32,28,26,88,63,40,30.30,29.88,18,6,27,0.00
2013-10-26,52,47,42,37,31,27,64,53,42,30.01,29.73,22,7,34,0.01
2013-10-27,55,44,34,33,31,28,83,62,39,29.99,29.86,14,3,22,0.00
2013-10-28,46,42,37,39,35,30,86,75,65,30.35,29.99,5,2,14,0.00
2013-10-29,55,45,36,45,41,31,99,85,68,30.33,30.09,4,1,9,0.00
2013-10-30,59,50,43,57,49,42,99,97,90,30.09,29.70,7,1,14,0.00
2013-10-31,62,57,46,62,56,44,99,98,91,29.70,29.18,11,2,25,0.53
2013-11-1,46,44,42,45,42,39,99,91,86,29.67,29.27,11,4,23,0.06
2013-11-2,47,43,40,43,40,36,99,89,68,30.08,29.67,8,3,14,0.01
2013-11-3,53,43,31,45,38,30,99,84,55,30.24,30.08,7,2,13,0.00
2013-11-4,58,50,44,46,42,39,89,75,55,30.20,30.02,8,3,17,0.00
2013-11-5,58,52,47,52,48,46,99,89,74,30.20,29.86,4,1,15,0.00
2013-11-6,56,46,33,56,43,26,99,90,66,30.08,29.69,16,6,25,0.30
2013-11-7,45,36,30,33,30,26,89,78,59,30.15,30.09,7,3,17,0.00
2013-11-8,47,38,28,36,32,27,98,79,60,30.24,29.82,8,3,15,0.00
2013-11-9,54,48,42,41,37,27,77,66,55,30.00,29.71,18,9,34,0.00
2013-11-10,52,43,38,34,30,28,69,61,45,30.25,30.00,12,6,25,0.00
2013-11-11,44,34,23,36,27,16,99,76,64,30.45,29.99,11,6,21,0.12
2013-11-12,34,25,21,18,16,14,83,68,46,30.61,30.46,9,5,19,0.01
2013-11-13,42,31,19,23,18,14,83,61,35,30.48,30.02,20,10,34,0.00
2013-11-14,47,40,33,32,26,20,71,59,49,30.02,29.84,15,8,28,0.00
2013-11-15,55,44,36,36,32,28,93,64,46,29.89,29.84,10,4,17,0.00
2013-11-16,59,48,33,57,47,33,99,97,92,29.86,29.48,13,5,27,0.08
2013-11-17,63,53,41,62,51,36,99,92,77,29.59,29.03,21,8,36,0.97
2013-11-18,41,35,28,36,27,22,83,73,59,30.18,29.60,19,9,34,0.00
2013-11-19,45,32,22,32,26,20,99,80,50,30.30,30.17,7,2,11,0.00
2013-11-20,46,38,32,37,32,29,99,80,53,30.21,30.05,11,4,18,0.07
2013-11-21,48,42,37,43,40,37,99,92,80,30.16,30.05,5,1,11,0.00
2013-11-22,40,33,26,38,28,18,98,80,61,30.39,30.15,12,6,21,0.02
2013-11-23,26,20,13,19,9,4,76,62,48,30.61,30.32,18,9,28,0.01
2013-11-24,28,18,10,12,7,4,81,62,39,30.60,30.21,17,7,26,0.00
2013-11-25,30,26,22,26,21,9,97,79,53,30.21,29.96,19,10,30,0.00
2013-11-26,32,26,14,28,19,5,89,74,51,30.11,29.95,17,7,25,0.00
2013-11-27,28,19,11,14,10,4,83,69,51,30.16,30.09,14,6,21,0.00
2013-11-28,30,23,16,17,15,13,88,72,57,30.41,30.10,8,3,14,0.00
2013-11-29,35,24,11,25,18,10,95,79,46,30.55,30.30,7,2,11,0.00
2013-11-30,49,34,25,33,28,21,96,76,54,30.29,29.96,11,3,17,0.00
2013-12-1,46,34,26,31,28,25,98,80,50,30.06,29.93,6,1,11,0.00
2013-12-2,42,33,23,36,29,22,99,88,66,29.92,29.73,7,2,11,0.04
2013-12-3,40,38,29,40,37,28,99,99,96,29.73,29.63,5,2,11,0.22
2013-12-4,51,42,38,50,41,35,99,94,77,29.71,29.42,17,3,30,0.04
2013-12-5,37,25,17,34,19,10,95,76,65,30.18,29.56,14,8,34,0.00
2013-12-6,19,13,9,11,6,2,82,73,58,30.45,30.16,11,6,18,0.00
2013-12-7,20,9,2,4,2,-2,87,72,49,30.60,30.45,8,4,15,0.00
2013-12-8,25,18,6,25,15,1,99,87,63,30.52,29.86,7,2,11,0.00
2013-12-9,25,13,-3,24,8,-8,99,78,58,30.10,29.83,15,7,30,0.00
2013-12-10,21,8,-6,11,1,-10,86,75,62,30.19,29.86,16,7,28,0.00
2013-12-11,15,7,-3,11,-1,-10,90,70,50,30.44,30.17,13,5,21,0.00
2013-12-12,19,8,-4,10,1,-10,79,72,58,30.42,30.10,12,6,24,0.00
2013-12-13,32,22,13,24,17,9,92,81,60,30.13,30.07,4,2,11,0.00
2013-12-14,30,25,19,26,23,17,95,90,80,30.09,29.86,6,2,12,0.00
2013-12-15,20,12,3,18,4,-7,93,70,53,30.04,29.83,12,6,23,0.00
2013-12-16,19,9,-4,12,3,-9,90,75,52,30.08,29.93,9,3,14,0.00
2013-12-17,34,24,14,25,19,11,97,80,63,29.98,29.83,13,6,21,0.00
2013-12-18,36,25,10,27,16,5,82,69,38,30.05,29.71,14,5,28,0.00
2013-12-19,34,30,21,32,27,20,99,88,76,29.90,29.72,7,2,12,0.06
2013-12-20,32,30,26,32,29,26,99,98,96,29.80,29.71,2,0,7,0.01
2013-12-21,33,28,25,32,28,25,99,99,98,29.82,29.62,0,0,0,0.00
2013-12-22,31,26,20,30,25,19,99,94,86,30.00,29.59,0,0,0,0.00
2013-12-23,19,10,-1,18,8,-5,98,88,81,30.31,30.04,0,0,0,0.00
2013-12-24,20,6,-4,8,1,-7,90,79,56,30.44,30.25,0,0,0,0.00
2013-12-25,23,20,10,21,17,8,96,91,86,30.25,29.99,0,0,0,0.00
2013-12-26,26,20,11,24,17,8,95,86,77,30.18,29.99,0,0,4,0.00
2013-12-27,38,30,10,31,25,9,98,85,75,30.19,29.93,14,5,23,0.05
2013-12-28,44,37,24,34,31,23,96,79,66,29.99,29.73,14,5,21,0.05
2013-12-29,36,18,1,30,12,-5,97,76,65,30.13,29.69,15,8,25,0.00
2013-12-30,6,-1,-9,-2,-8,-15,84,69,50,30.25,30.11,8,3,14,0.00
2013-12-31,8,4,0,3,-1,-5,89,79,67,30.28,30.09,8,4,11,0.00
2014-1-1,18,9,2,14,5,-7,89,82,64,30.26,30.17,8,4,14,0.00
2014-1-2,18,8,-4,8,3,-12,90,77,58,30.32,30.13,11,6,17,0.00